sensor_id;sensor_type;location;lat;lon;timestamp;P1;durP1;ratioP1;P2;durP2;ratioP2
289;SDS011;13193;48.874;9.086;2022-12-08T00:00:55;29.50;;;11.90;;
289;SDS011;13193;48.874;9.086;2022-12-08T00:03:38;30.73;;;11.70;;
289;SDS011;13193;48.874;9.086;2022-12-08T00:06:07;27.27;;;11.70;;
289;SDS011;13193;48.874;9.086;2022-12-08T00:09:01;26.23;;;10.00;;
289;SDS011;13193;48.874;9.086;2022-12-08T00:11:46;22.40;;;10.33;;
289;SDS011;13193;48.874;9.086;2022-12-08T00:14:15;20.60;;;8.83;;
289;SDS011;13193;48.874;9.086;2022-12-08T00:16:41;22.03;;;9.10;;
289;SDS011;13193;48.874;9.086;2022-12-08T00:19:07;24.10;;;9.90;;
289;SDS011;13193;48.874;9.086;2022-12-08T00:21:34;21.20;;;10.07;;
289;SDS011;13193;48.874;9.086;2022-12-08T00:23:59;22.43;;;10.53;;
289;SDS011;13193;48.874;9.086;2022-12-08T00:26:25;26.37;;;9.73;;
289;SDS011;13193;48.874;9.086;2022-12-08T00:28:52;19.80;;;9.90;;
289;SDS011;13193;48.874;9.086;2022-12-08T00:31:18;25.97;;;9.57;;
289;SDS011;13193;48.874;9.086;2022-12-08T00:33:43;25.10;;;10.87;;
289;SDS011;13193;48.874;9.086;2022-12-08T00:36:12;19.90;;;8.43;;
289;SDS011;13193;48.874;9.086;2022-12-08T00:38:40;24.20;;;9.73;;
289;SDS011;13193;48.874;9.086;2022-12-08T00:41:14;21.33;;;9.67;;
289;SDS011;13193;48.874;9.086;2022-12-08T00:43:41;26.63;;;10.00;;
289;SDS011;13193;48.874;9.086;2022-12-08T00:46:08;29.43;;;11.53;;
289;SDS011;13193;48.874;9.086;2022-12-08T00:48:34;24.83;;;11.30;;
289;SDS011;13193;48.874;9.086;2022-12-08T00:51:00;20.93;;;9.57;;
289;SDS011;13193;48.874;9.086;2022-12-08T00:53:26;34.53;;;12.60;;
289;SDS011;13193;48.874;9.086;2022-12-08T00:55:51;30.10;;;9.43;;
289;SDS011;13193;48.874;9.086;2022-12-08T00:58:17;24.83;;;11.30;;
289;SDS011;13193;48.874;9.086;2022-12-08T01:00:43;26.73;;;10.13;;
289;SDS011;13193;48.874;9.086;2022-12-08T01:03:09;30.10;;;11.07;;
289;SDS011;13193;48.874;9.086;2022-12-08T01:05:35;30.40;;;11.27;;
289;SDS011;13193;48.874;9.086;2022-12-08T01:08:02;25.43;;;11.00;;
289;SDS011;13193;48.874;9.086;2022-12-08T01:10:33;23.57;;;11.27;;
289;SDS011;13193;48.874;9.086;2022-12-08T01:12:59;31.03;;;13.83;;
289;SDS011;13193;48.874;9.086;2022-12-08T01:15:26;25.17;;;11.00;;
289;SDS011;13193;48.874;9.086;2022-12-08T01:17:52;23.10;;;10.83;;
289;SDS011;13193;48.874;9.086;2022-12-08T01:20:18;20.93;;;9.93;;
289;SDS011;13193;48.874;9.086;2022-12-08T01:22:43;24.53;;;9.67;;
289;SDS011;13193;48.874;9.086;2022-12-08T01:25:09;18.63;;;9.10;;
289;SDS011;13193;48.874;9.086;2022-12-08T01:27:35;15.47;;;7.73;;
289;SDS011;13193;48.874;9.086;2022-12-08T01:30:00;16.40;;;8.40;;
289;SDS011;13193;48.874;9.086;2022-12-08T01:32:26;19.03;;;8.27;;
289;SDS011;13193;48.874;9.086;2022-12-08T01:34:52;19.97;;;8.80;;
289;SDS011;13193;48.874;9.086;2022-12-08T01:37:17;23.90;;;9.10;;
289;SDS011;13193;48.874;9.086;2022-12-08T01:39:43;24.03;;;8.17;;
289;SDS011;13193;48.874;9.086;2022-12-08T01:42:21;23.97;;;9.57;;
289;SDS011;13193;48.874;9.086;2022-12-08T01:44:55;20.80;;;8.73;;
289;SDS011;13193;48.874;9.086;2022-12-08T01:47:28;18.37;;;7.77;;
289;SDS011;13193;48.874;9.086;2022-12-08T01:50:05;20.73;;;9.40;;
289;SDS011;13193;48.874;9.086;2022-12-08T01:52:36;21.60;;;8.60;;
289;SDS011;13193;48.874;9.086;2022-12-08T01:55:15;28.70;;;9.93;;
289;SDS011;13193;48.874;9.086;2022-12-08T01:57:48;26.07;;;8.43;;
289;SDS011;13193;48.874;9.086;2022-12-08T02:00:18;22.40;;;8.50;;
289;SDS011;13193;48.874;9.086;2022-12-08T02:05:20;17.37;;;8.57;;
289;SDS011;13193;48.874;9.086;2022-12-08T02:07:48;22.83;;;7.83;;
289;SDS011;13193;48.874;9.086;2022-12-08T02:10:16;23.10;;;9.90;;
289;SDS011;13193;48.874;9.086;2022-12-08T02:12:44;16.53;;;8.53;;
289;SDS011;13193;48.874;9.086;2022-12-08T02:15:12;22.00;;;8.23;;
289;SDS011;13193;48.874;9.086;2022-12-08T02:28:39;23.60;;;9.47;;
289;SDS011;13193;48.874;9.086;2022-12-08T02:31:24;20.37;;;9.27;;
289;SDS011;13193;48.874;9.086;2022-12-08T02:34:30;25.23;;;9.20;;
289;SDS011;13193;48.874;9.086;2022-12-08T02:37:30;24.83;;;8.63;;
289;SDS011;13193;48.874;9.086;2022-12-08T02:40:21;17.13;;;7.80;;
289;SDS011;13193;48.874;9.086;2022-12-08T02:43:06;20.87;;;9.03;;
289;SDS011;13193;48.874;9.086;2022-12-08T02:45:49;23.53;;;8.93;;
289;SDS011;13193;48.874;9.086;2022-12-08T02:48:18;19.07;;;8.10;;
289;SDS011;13193;48.874;9.086;2022-12-08T02:50:45;26.03;;;9.93;;
289;SDS011;13193;48.874;9.086;2022-12-08T02:53:11;24.90;;;8.73;;
289;SDS011;13193;48.874;9.086;2022-12-08T03:04:25;18.73;;;8.80;;
289;SDS011;13193;48.874;9.086;2022-12-08T03:07:30;18.50;;;8.90;;
289;SDS011;13193;48.874;9.086;2022-12-08T03:10:11;15.90;;;7.70;;
289;SDS011;13193;48.874;9.086;2022-12-08T03:12:47;24.50;;;8.77;;
289;SDS011;13193;48.874;9.086;2022-12-08T03:15:18;18.00;;;8.20;;
289;SDS011;13193;48.874;9.086;2022-12-08T03:17:46;16.00;;;7.53;;
289;SDS011;13193;48.874;9.086;2022-12-08T03:20:17;23.73;;;8.40;;
289;SDS011;13193;48.874;9.086;2022-12-08T03:22:45;22.30;;;9.13;;
289;SDS011;13193;48.874;9.086;2022-12-08T03:25:14;17.77;;;7.27;;
289;SDS011;13193;48.874;9.086;2022-12-08T03:27:43;21.40;;;8.20;;
289;SDS011;13193;48.874;9.086;2022-12-08T03:30:09;21.33;;;9.27;;
289;SDS011;13193;48.874;9.086;2022-12-08T03:35:28;16.87;;;7.90;;
289;SDS011;13193;48.874;9.086;2022-12-08T03:38:00;20.90;;;7.40;;
289;SDS011;13193;48.874;9.086;2022-12-08T03:40:28;20.13;;;8.30;;
289;SDS011;13193;48.874;9.086;2022-12-08T03:42:55;14.63;;;6.90;;
289;SDS011;13193;48.874;9.086;2022-12-08T03:45:20;14.37;;;7.50;;
289;SDS011;13193;48.874;9.086;2022-12-08T03:47:46;19.53;;;7.70;;
289;SDS011;13193;48.874;9.086;2022-12-08T03:50:12;16.37;;;7.00;;
289;SDS011;13193;48.874;9.086;2022-12-08T03:52:37;20.40;;;9.50;;
289;SDS011;13193;48.874;9.086;2022-12-08T03:55:03;22.73;;;8.27;;
289;SDS011;13193;48.874;9.086;2022-12-08T03:57:29;25.80;;;9.00;;
289;SDS011;13193;48.874;9.086;2022-12-08T03:59:56;22.40;;;8.37;;
289;SDS011;13193;48.874;9.086;2022-12-08T04:02:22;17.93;;;7.97;;
289;SDS011;13193;48.874;9.086;2022-12-08T04:04:47;23.50;;;8.73;;
289;SDS011;13193;48.874;9.086;2022-12-08T04:07:13;18.90;;;9.53;;
289;SDS011;13193;48.874;9.086;2022-12-08T04:09:38;19.37;;;8.17;;
289;SDS011;13193;48.874;9.086;2022-12-08T04:12:05;23.40;;;7.03;;
289;SDS011;13193;48.874;9.086;2022-12-08T04:14:32;27.77;;;9.37;;
289;SDS011;13193;48.874;9.086;2022-12-08T04:16:58;21.20;;;8.57;;
289;SDS011;13193;48.874;9.086;2022-12-08T04:19:24;17.53;;;8.53;;
289;SDS011;13193;48.874;9.086;2022-12-08T04:21:50;20.07;;;7.40;;
289;SDS011;13193;48.874;9.086;2022-12-08T04:24:16;22.23;;;7.47;;
289;SDS011;13193;48.874;9.086;2022-12-08T04:26:42;21.03;;;9.17;;
289;SDS011;13193;48.874;9.086;2022-12-08T04:29:07;23.33;;;9.40;;
289;SDS011;13193;48.874;9.086;2022-12-08T04:31:34;24.97;;;10.30;;
289;SDS011;13193;48.874;9.086;2022-12-08T04:33:59;21.63;;;8.47;;
289;SDS011;13193;48.874;9.086;2022-12-08T04:36:25;19.53;;;7.77;;
289;SDS011;13193;48.874;9.086;2022-12-08T04:38:50;15.40;;;7.90;;
289;SDS011;13193;48.874;9.086;2022-12-08T04:41:16;17.47;;;8.23;;
289;SDS011;13193;48.874;9.086;2022-12-08T04:43:42;22.97;;;8.13;;
289;SDS011;13193;48.874;9.086;2022-12-08T04:46:08;15.33;;;7.60;;
289;SDS011;13193;48.874;9.086;2022-12-08T04:48:37;25.90;;;8.63;;
289;SDS011;13193;48.874;9.086;2022-12-08T04:51:04;22.30;;;8.60;;
289;SDS011;13193;48.874;9.086;2022-12-08T04:53:35;18.53;;;7.10;;
289;SDS011;13193;48.874;9.086;2022-12-08T04:56:00;14.33;;;7.53;;
289;SDS011;13193;48.874;9.086;2022-12-08T04:58:26;21.87;;;8.93;;
289;SDS011;13193;48.874;9.086;2022-12-08T05:00:52;22.70;;;9.27;;
289;SDS011;13193;48.874;9.086;2022-12-08T05:03:19;22.83;;;8.30;;
289;SDS011;13193;48.874;9.086;2022-12-08T05:05:45;15.67;;;7.57;;
289;SDS011;13193;48.874;9.086;2022-12-08T05:08:11;20.83;;;7.87;;
289;SDS011;13193;48.874;9.086;2022-12-08T05:10:37;20.27;;;8.50;;
289;SDS011;13193;48.874;9.086;2022-12-08T05:13:03;21.37;;;8.67;;
289;SDS011;13193;48.874;9.086;2022-12-08T05:15:28;24.70;;;8.77;;
289;SDS011;13193;48.874;9.086;2022-12-08T05:17:54;18.93;;;9.03;;
289;SDS011;13193;48.874;9.086;2022-12-08T05:20:20;19.30;;;8.30;;
289;SDS011;13193;48.874;9.086;2022-12-08T05:22:45;17.77;;;8.00;;
289;SDS011;13193;48.874;9.086;2022-12-08T05:25:11;22.80;;;7.70;;
289;SDS011;13193;48.874;9.086;2022-12-08T05:27:37;19.83;;;8.40;;
289;SDS011;13193;48.874;9.086;2022-12-08T05:30:03;20.77;;;9.50;;
289;SDS011;13193;48.874;9.086;2022-12-08T05:32:29;15.93;;;6.80;;
289;SDS011;13193;48.874;9.086;2022-12-08T05:34:55;21.57;;;8.10;;
289;SDS011;13193;48.874;9.086;2022-12-08T05:37:21;24.90;;;8.23;;
289;SDS011;13193;48.874;9.086;2022-12-08T05:39:47;31.80;;;9.87;;
289;SDS011;13193;48.874;9.086;2022-12-08T05:42:14;18.73;;;8.40;;
289;SDS011;13193;48.874;9.086;2022-12-08T05:44:39;22.30;;;8.07;;
289;SDS011;13193;48.874;9.086;2022-12-08T05:47:05;19.47;;;7.20;;
289;SDS011;13193;48.874;9.086;2022-12-08T05:49:31;27.20;;;10.80;;
289;SDS011;13193;48.874;9.086;2022-12-08T05:51:56;25.77;;;9.50;;
289;SDS011;13193;48.874;9.086;2022-12-08T05:54:23;23.40;;;10.13;;
289;SDS011;13193;48.874;9.086;2022-12-08T05:56:49;22.50;;;8.80;;
289;SDS011;13193;48.874;9.086;2022-12-08T05:59:17;25.80;;;8.83;;
289;SDS011;13193;48.874;9.086;2022-12-08T06:01:42;23.87;;;8.17;;
289;SDS011;13193;48.874;9.086;2022-12-08T06:04:08;25.43;;;10.27;;
289;SDS011;13193;48.874;9.086;2022-12-08T06:06:34;25.23;;;9.33;;
289;SDS011;13193;48.874;9.086;2022-12-08T06:09:01;21.17;;;8.57;;
289;SDS011;13193;48.874;9.086;2022-12-08T06:11:29;20.17;;;8.00;;
289;SDS011;13193;48.874;9.086;2022-12-08T06:13:56;19.67;;;8.17;;
289;SDS011;13193;48.874;9.086;2022-12-08T06:16:23;18.27;;;8.50;;
289;SDS011;13193;48.874;9.086;2022-12-08T06:18:50;18.77;;;8.10;;
289;SDS011;13193;48.874;9.086;2022-12-08T06:21:16;18.83;;;7.30;;
289;SDS011;13193;48.874;9.086;2022-12-08T06:23:42;16.67;;;6.00;;
289;SDS011;13193;48.874;9.086;2022-12-08T06:26:10;16.37;;;7.80;;
289;SDS011;13193;48.874;9.086;2022-12-08T06:28:37;14.87;;;7.40;;
289;SDS011;13193;48.874;9.086;2022-12-08T06:31:13;23.83;;;7.70;;
289;SDS011;13193;48.874;9.086;2022-12-08T06:33:43;19.27;;;8.93;;
289;SDS011;13193;48.874;9.086;2022-12-08T06:36:10;19.20;;;7.97;;
289;SDS011;13193;48.874;9.086;2022-12-08T06:38:37;17.50;;;7.67;;
289;SDS011;13193;48.874;9.086;2022-12-08T06:41:03;19.20;;;7.97;;
289;SDS011;13193;48.874;9.086;2022-12-08T06:43:30;17.37;;;7.53;;
289;SDS011;13193;48.874;9.086;2022-12-08T06:45:55;16.50;;;8.33;;
289;SDS011;13193;48.874;9.086;2022-12-08T06:48:21;21.10;;;6.80;;
289;SDS011;13193;48.874;9.086;2022-12-08T06:50:47;20.40;;;6.73;;
289;SDS011;13193;48.874;9.086;2022-12-08T06:53:13;18.10;;;8.43;;
289;SDS011;13193;48.874;9.086;2022-12-08T06:55:46;23.80;;;8.27;;
289;SDS011;13193;48.874;9.086;2022-12-08T06:58:16;20.47;;;7.17;;
289;SDS011;13193;48.874;9.086;2022-12-08T07:00:42;20.90;;;8.15;;
289;SDS011;13193;48.874;9.086;2022-12-08T07:03:08;18.07;;;8.67;;
289;SDS011;13193;48.874;9.086;2022-12-08T07:05:35;20.77;;;7.83;;
289;SDS011;13193;48.874;9.086;2022-12-08T07:08:02;19.10;;;8.27;;
289;SDS011;13193;48.874;9.086;2022-12-08T07:10:28;26.80;;;8.50;;
289;SDS011;13193;48.874;9.086;2022-12-08T07:12:54;19.97;;;8.53;;
289;SDS011;13193;48.874;9.086;2022-12-08T07:15:19;19.93;;;8.50;;
289;SDS011;13193;48.874;9.086;2022-12-08T07:17:46;23.40;;;8.97;;
289;SDS011;13193;48.874;9.086;2022-12-08T07:20:12;26.97;;;7.13;;
289;SDS011;13193;48.874;9.086;2022-12-08T07:22:38;18.33;;;7.70;;
289;SDS011;13193;48.874;9.086;2022-12-08T07:25:04;23.43;;;8.67;;
289;SDS011;13193;48.874;9.086;2022-12-08T07:27:30;27.33;;;8.33;;
289;SDS011;13193;48.874;9.086;2022-12-08T07:29:55;15.93;;;7.40;;
289;SDS011;13193;48.874;9.086;2022-12-08T07:32:37;24.27;;;8.03;;
289;SDS011;13193;48.874;9.086;2022-12-08T07:35:05;24.13;;;7.63;;
289;SDS011;13193;48.874;9.086;2022-12-08T07:37:39;18.33;;;8.80;;
289;SDS011;13193;48.874;9.086;2022-12-08T07:40:07;23.63;;;9.10;;
289;SDS011;13193;48.874;9.086;2022-12-08T07:42:42;18.53;;;7.17;;
289;SDS011;13193;48.874;9.086;2022-12-08T07:45:08;41.17;;;11.03;;
289;SDS011;13193;48.874;9.086;2022-12-08T07:47:34;21.70;;;9.23;;
289;SDS011;13193;48.874;9.086;2022-12-08T07:50:00;27.50;;;10.00;;
289;SDS011;13193;48.874;9.086;2022-12-08T07:52:30;26.17;;;9.80;;
289;SDS011;13193;48.874;9.086;2022-12-08T07:54:58;20.53;;;8.63;;
289;SDS011;13193;48.874;9.086;2022-12-08T07:57:29;27.67;;;8.93;;
289;SDS011;13193;48.874;9.086;2022-12-08T08:00:02;23.90;;;8.60;;
289;SDS011;13193;48.874;9.086;2022-12-08T08:02:29;21.30;;;9.10;;
289;SDS011;13193;48.874;9.086;2022-12-08T08:05:03;21.53;;;8.23;;
289;SDS011;13193;48.874;9.086;2022-12-08T08:07:34;18.63;;;9.80;;
289;SDS011;13193;48.874;9.086;2022-12-08T08:10:02;22.03;;;8.97;;
289;SDS011;13193;48.874;9.086;2022-12-08T08:12:33;22.20;;;9.13;;
289;SDS011;13193;48.874;9.086;2022-12-08T08:15:03;17.50;;;6.60;;
289;SDS011;13193;48.874;9.086;2022-12-08T08:17:41;16.53;;;8.20;;
289;SDS011;13193;48.874;9.086;2022-12-08T08:20:09;28.97;;;9.07;;
289;SDS011;13193;48.874;9.086;2022-12-08T08:22:38;21.27;;;8.70;;
289;SDS011;13193;48.874;9.086;2022-12-08T08:25:21;23.47;;;9.20;;
289;SDS011;13193;48.874;9.086;2022-12-08T08:27:50;23.20;;;8.20;;
289;SDS011;13193;48.874;9.086;2022-12-08T08:30:18;25.70;;;9.83;;
289;SDS011;13193;48.874;9.086;2022-12-08T08:32:49;21.43;;;9.17;;
289;SDS011;13193;48.874;9.086;2022-12-08T08:35:20;21.60;;;8.10;;
289;SDS011;13193;48.874;9.086;2022-12-08T08:38:02;24.03;;;9.80;;
289;SDS011;13193;48.874;9.086;2022-12-08T08:40:32;16.70;;;8.00;;
289;SDS011;13193;48.874;9.086;2022-12-08T08:43:00;14.47;;;7.90;;
289;SDS011;13193;48.874;9.086;2022-12-08T08:45:33;27.30;;;9.00;;
289;SDS011;13193;48.874;9.086;2022-12-08T08:47:59;25.03;;;7.93;;
289;SDS011;13193;48.874;9.086;2022-12-08T08:50:25;18.70;;;8.37;;
289;SDS011;13193;48.874;9.086;2022-12-08T08:52:54;26.03;;;10.20;;
289;SDS011;13193;48.874;9.086;2022-12-08T08:55:19;25.17;;;9.20;;
289;SDS011;13193;48.874;9.086;2022-12-08T08:57:45;22.17;;;8.37;;
289;SDS011;13193;48.874;9.086;2022-12-08T09:00:16;25.47;;;9.97;;
289;SDS011;13193;48.874;9.086;2022-12-08T09:02:46;24.10;;;10.70;;
289;SDS011;13193;48.874;9.086;2022-12-08T09:05:12;23.00;;;10.30;;
289;SDS011;13193;48.874;9.086;2022-12-08T09:07:38;29.60;;;10.60;;
289;SDS011;13193;48.874;9.086;2022-12-08T09:10:07;24.67;;;11.30;;
289;SDS011;13193;48.874;9.086;2022-12-08T09:12:37;26.53;;;10.23;;
289;SDS011;13193;48.874;9.086;2022-12-08T09:15:05;22.10;;;10.83;;
289;SDS011;13193;48.874;9.086;2022-12-08T09:17:31;20.90;;;11.30;;
289;SDS011;13193;48.874;9.086;2022-12-08T09:19:57;26.00;;;10.90;;
289;SDS011;13193;48.874;9.086;2022-12-08T09:22:23;26.10;;;9.70;;
289;SDS011;13193;48.874;9.086;2022-12-08T09:24:51;35.73;;;11.00;;
289;SDS011;13193;48.874;9.086;2022-12-08T09:27:16;25.70;;;12.10;;
289;SDS011;13193;48.874;9.086;2022-12-08T09:29:42;29.67;;;11.37;;
289;SDS011;13193;48.874;9.086;2022-12-08T09:32:07;32.87;;;11.87;;
289;SDS011;13193;48.874;9.086;2022-12-08T09:34:33;23.00;;;10.23;;
289;SDS011;13193;48.874;9.086;2022-12-08T09:36:59;32.17;;;11.27;;
289;SDS011;13193;48.874;9.086;2022-12-08T09:39:24;26.43;;;11.10;;
289;SDS011;13193;48.874;9.086;2022-12-08T09:41:57;26.77;;;10.63;;
289;SDS011;13193;48.874;9.086;2022-12-08T09:47:34;32.00;;;11.00;;
289;SDS011;13193;48.874;9.086;2022-12-08T09:53:20;27.43;;;9.80;;
289;SDS011;13193;48.874;9.086;2022-12-08T09:55:57;27.00;;;10.73;;
289;SDS011;13193;48.874;9.086;2022-12-08T09:58:43;22.80;;;9.13;;
289;SDS011;13193;48.874;9.086;2022-12-08T10:01:28;18.60;;;8.23;;
289;SDS011;13193;48.874;9.086;2022-12-08T10:03:56;18.63;;;9.27;;
289;SDS011;13193;48.874;9.086;2022-12-08T10:12:16;20.37;;;8.33;;
289;SDS011;13193;48.874;9.086;2022-12-08T10:17:41;17.37;;;8.43;;
289;SDS011;13193;48.874;9.086;2022-12-08T10:22:48;19.43;;;8.90;;
289;SDS011;13193;48.874;9.086;2022-12-08T10:25:21;21.00;;;8.93;;
289;SDS011;13193;48.874;9.086;2022-12-08T10:27:56;17.73;;;7.63;;
289;SDS011;13193;48.874;9.086;2022-12-08T10:30:22;18.63;;;8.47;;
289;SDS011;13193;48.874;9.086;2022-12-08T10:32:49;17.63;;;8.33;;
289;SDS011;13193;48.874;9.086;2022-12-08T10:35:18;18.50;;;7.53;;
289;SDS011;13193;48.874;9.086;2022-12-08T10:37:55;16.73;;;7.43;;
289;SDS011;13193;48.874;9.086;2022-12-08T10:40:22;14.87;;;6.60;;
289;SDS011;13193;48.874;9.086;2022-12-08T10:42:57;13.13;;;6.67;;
289;SDS011;13193;48.874;9.086;2022-12-08T10:47:54;20.43;;;6.80;;
289;SDS011;13193;48.874;9.086;2022-12-08T10:50:22;18.03;;;6.90;;
289;SDS011;13193;48.874;9.086;2022-12-08T10:53:29;14.13;;;6.97;;
289;SDS011;13193;48.874;9.086;2022-12-08T10:58:32;18.03;;;6.80;;
289;SDS011;13193;48.874;9.086;2022-12-08T11:03:35;12.50;;;6.00;;
289;SDS011;13193;48.874;9.086;2022-12-08T11:06:34;11.83;;;6.37;;
289;SDS011;13193;48.874;9.086;2022-12-08T11:09:22;11.80;;;5.53;;
289;SDS011;13193;48.874;9.086;2022-12-08T11:12:16;15.60;;;6.07;;
289;SDS011;13193;48.874;9.086;2022-12-08T11:14:50;10.83;;;6.10;;
289;SDS011;13193;48.874;9.086;2022-12-08T11:19:55;12.63;;;5.47;;
289;SDS011;13193;48.874;9.086;2022-12-08T11:27:41;19.50;;;7.00;;
289;SDS011;13193;48.874;9.086;2022-12-08T11:32:43;12.77;;;6.30;;
289;SDS011;13193;48.874;9.086;2022-12-08T11:35:16;14.57;;;5.77;;
289;SDS011;13193;48.874;9.086;2022-12-08T11:37:47;11.17;;;5.57;;
289;SDS011;13193;48.874;9.086;2022-12-08T11:40:15;8.80;;;6.30;;
289;SDS011;13193;48.874;9.086;2022-12-08T11:43:00;10.27;;;5.33;;
289;SDS011;13193;48.874;9.086;2022-12-08T11:45:48;12.73;;;6.03;;
289;SDS011;13193;48.874;9.086;2022-12-08T11:51:14;12.83;;;5.30;;
289;SDS011;13193;48.874;9.086;2022-12-08T11:56:56;10.83;;;6.20;;
289;SDS011;13193;48.874;9.086;2022-12-08T11:59:28;13.20;;;5.50;;
289;SDS011;13193;48.874;9.086;2022-12-08T12:02:09;14.57;;;6.40;;
289;SDS011;13193;48.874;9.086;2022-12-08T12:04:54;14.50;;;6.20;;
289;SDS011;13193;48.874;9.086;2022-12-08T12:16:16;13.43;;;6.03;;
289;SDS011;13193;48.874;9.086;2022-12-08T12:19:07;14.73;;;6.10;;
289;SDS011;13193;48.874;9.086;2022-12-08T12:21:42;23.37;;;8.60;;
289;SDS011;13193;48.874;9.086;2022-12-08T12:24:18;16.13;;;6.90;;
289;SDS011;13193;48.874;9.086;2022-12-08T12:26:53;13.10;;;7.23;;
289;SDS011;13193;48.874;9.086;2022-12-08T12:29:25;14.80;;;6.83;;
289;SDS011;13193;48.874;9.086;2022-12-08T12:31:56;15.03;;;6.60;;
289;SDS011;13193;48.874;9.086;2022-12-08T12:34:29;10.70;;;6.17;;
289;SDS011;13193;48.874;9.086;2022-12-08T12:37:12;15.23;;;6.00;;
289;SDS011;13193;48.874;9.086;2022-12-08T12:39:47;19.10;;;7.33;;
289;SDS011;13193;48.874;9.086;2022-12-08T12:53:03;15.13;;;6.30;;
289;SDS011;13193;48.874;9.086;2022-12-08T12:58:21;19.53;;;7.47;;
289;SDS011;13193;48.874;9.086;2022-12-08T13:03:43;24.13;;;9.40;;
289;SDS011;13193;48.874;9.086;2022-12-08T13:06:36;19.50;;;9.53;;
289;SDS011;13193;48.874;9.086;2022-12-08T13:09:21;16.23;;;6.77;;
289;SDS011;13193;48.874;9.086;2022-12-08T13:12:00;14.13;;;7.70;;
289;SDS011;13193;48.874;9.086;2022-12-08T13:14:35;16.10;;;6.83;;
289;SDS011;13193;48.874;9.086;2022-12-08T13:17:07;12.00;;;5.93;;
289;SDS011;13193;48.874;9.086;2022-12-08T13:19:37;15.20;;;6.57;;
289;SDS011;13193;48.874;9.086;2022-12-08T13:36:13;21.77;;;6.70;;
289;SDS011;13193;48.874;9.086;2022-12-08T13:38:57;13.03;;;6.53;;
289;SDS011;13193;48.874;9.086;2022-12-08T13:41:40;14.30;;;5.80;;
289;SDS011;13193;48.874;9.086;2022-12-08T13:44:20;14.83;;;5.77;;
289;SDS011;13193;48.874;9.086;2022-12-08T13:46:50;16.50;;;6.60;;
289;SDS011;13193;48.874;9.086;2022-12-08T13:49:27;13.97;;;6.70;;
289;SDS011;13193;48.874;9.086;2022-12-08T13:51:59;13.70;;;7.30;;
289;SDS011;13193;48.874;9.086;2022-12-08T13:54:29;12.50;;;6.30;;
289;SDS011;13193;48.874;9.086;2022-12-08T13:56:58;14.03;;;7.10;;
289;SDS011;13193;48.874;9.086;2022-12-08T13:59:27;11.83;;;6.07;;
289;SDS011;13193;48.874;9.086;2022-12-08T14:02:00;12.37;;;5.70;;
289;SDS011;13193;48.874;9.086;2022-12-08T14:04:29;13.90;;;6.80;;
289;SDS011;13193;48.874;9.086;2022-12-08T14:06:56;11.90;;;5.80;;
289;SDS011;13193;48.874;9.086;2022-12-08T14:09:31;13.47;;;6.00;;
289;SDS011;13193;48.874;9.086;2022-12-08T14:12:07;13.70;;;5.70;;
289;SDS011;13193;48.874;9.086;2022-12-08T14:14:45;13.97;;;5.97;;
289;SDS011;13193;48.874;9.086;2022-12-08T14:17:20;14.13;;;7.03;;
289;SDS011;13193;48.874;9.086;2022-12-08T14:19:56;18.13;;;7.77;;
289;SDS011;13193;48.874;9.086;2022-12-08T14:22:23;17.63;;;7.37;;
289;SDS011;13193;48.874;9.086;2022-12-08T14:24:52;12.37;;;6.20;;
289;SDS011;13193;48.874;9.086;2022-12-08T14:27:25;11.37;;;6.40;;
289;SDS011;13193;48.874;9.086;2022-12-08T14:29:56;15.40;;;6.50;;
289;SDS011;13193;48.874;9.086;2022-12-08T14:35:01;13.10;;;6.70;;
289;SDS011;13193;48.874;9.086;2022-12-08T14:37:45;16.57;;;8.13;;
289;SDS011;13193;48.874;9.086;2022-12-08T14:42:51;13.83;;;6.40;;
289;SDS011;13193;48.874;9.086;2022-12-08T14:45:33;23.43;;;9.70;;
289;SDS011;13193;48.874;9.086;2022-12-08T14:53:40;15.93;;;6.17;;
289;SDS011;13193;48.874;9.086;2022-12-08T14:59:02;11.50;;;6.23;;
289;SDS011;13193;48.874;9.086;2022-12-08T15:01:37;15.10;;;6.27;;
289;SDS011;13193;48.874;9.086;2022-12-08T15:09:29;14.23;;;7.13;;
289;SDS011;13193;48.874;9.086;2022-12-08T15:12:00;15.03;;;6.60;;
289;SDS011;13193;48.874;9.086;2022-12-08T15:14:29;12.37;;;5.90;;
289;SDS011;13193;48.874;9.086;2022-12-08T15:16:57;13.00;;;6.03;;
289;SDS011;13193;48.874;9.086;2022-12-08T15:19:26;17.73;;;6.10;;
289;SDS011;13193;48.874;9.086;2022-12-08T15:21:57;15.07;;;6.60;;
289;SDS011;13193;48.874;9.086;2022-12-08T15:24:31;15.37;;;6.67;;
289;SDS011;13193;48.874;9.086;2022-12-08T15:26:59;14.70;;;7.53;;
289;SDS011;13193;48.874;9.086;2022-12-08T15:29:26;12.30;;;6.17;;
289;SDS011;13193;48.874;9.086;2022-12-08T15:31:57;20.70;;;8.70;;
289;SDS011;13193;48.874;9.086;2022-12-08T15:34:24;16.93;;;8.30;;
289;SDS011;13193;48.874;9.086;2022-12-08T15:36:50;17.00;;;7.10;;
289;SDS011;13193;48.874;9.086;2022-12-08T15:41:57;17.30;;;7.80;;
289;SDS011;13193;48.874;9.086;2022-12-08T15:44:23;19.60;;;8.27;;
289;SDS011;13193;48.874;9.086;2022-12-08T15:46:49;16.37;;;7.10;;
289;SDS011;13193;48.874;9.086;2022-12-08T15:49:16;20.13;;;9.20;;
289;SDS011;13193;48.874;9.086;2022-12-08T15:51:43;18.40;;;8.27;;
289;SDS011;13193;48.874;9.086;2022-12-08T15:54:09;14.47;;;7.53;;
289;SDS011;13193;48.874;9.086;2022-12-08T15:56:36;16.90;;;7.97;;
289;SDS011;13193;48.874;9.086;2022-12-08T15:59:10;14.87;;;8.00;;
289;SDS011;13193;48.874;9.086;2022-12-08T16:01:40;18.73;;;8.33;;
289;SDS011;13193;48.874;9.086;2022-12-08T16:04:06;16.83;;;7.70;;
289;SDS011;13193;48.874;9.086;2022-12-08T16:06:32;19.80;;;9.93;;
289;SDS011;13193;48.874;9.086;2022-12-08T16:08:58;19.50;;;8.60;;
289;SDS011;13193;48.874;9.086;2022-12-08T16:11:24;21.73;;;7.43;;
289;SDS011;13193;48.874;9.086;2022-12-08T16:14:08;25.13;;;9.77;;
289;SDS011;13193;48.874;9.086;2022-12-08T16:16:34;18.83;;;8.73;;
289;SDS011;13193;48.874;9.086;2022-12-08T16:19:00;20.23;;;8.67;;
289;SDS011;13193;48.874;9.086;2022-12-08T16:21:25;30.47;;;12.50;;
289;SDS011;13193;48.874;9.086;2022-12-08T16:23:51;19.13;;;10.03;;
289;SDS011;13193;48.874;9.086;2022-12-08T16:26:20;22.80;;;9.37;;
289;SDS011;13193;48.874;9.086;2022-12-08T16:28:47;15.53;;;7.83;;
289;SDS011;13193;48.874;9.086;2022-12-08T16:31:13;27.70;;;9.17;;
289;SDS011;13193;48.874;9.086;2022-12-08T16:33:39;26.23;;;10.20;;
289;SDS011;13193;48.874;9.086;2022-12-08T16:36:05;22.97;;;10.13;;
289;SDS011;13193;48.874;9.086;2022-12-08T16:38:31;21.30;;;9.20;;
289;SDS011;13193;48.874;9.086;2022-12-08T16:40:57;16.80;;;7.83;;
289;SDS011;13193;48.874;9.086;2022-12-08T16:43:41;14.40;;;8.27;;
289;SDS011;13193;48.874;9.086;2022-12-08T16:46:06;32.93;;;9.60;;
289;SDS011;13193;48.874;9.086;2022-12-08T16:48:47;19.83;;;8.40;;
289;SDS011;13193;48.874;9.086;2022-12-08T16:51:15;29.73;;;8.80;;
289;SDS011;13193;48.874;9.086;2022-12-08T16:53:42;22.30;;;10.80;;
289;SDS011;13193;48.874;9.086;2022-12-08T16:56:13;19.40;;;9.00;;
289;SDS011;13193;48.874;9.086;2022-12-08T16:58:43;27.50;;;9.30;;
289;SDS011;13193;48.874;9.086;2022-12-08T17:01:15;18.67;;;8.87;;
289;SDS011;13193;48.874;9.086;2022-12-08T17:03:43;20.50;;;8.90;;
289;SDS011;13193;48.874;9.086;2022-12-08T17:06:09;20.43;;;8.77;;
289;SDS011;13193;48.874;9.086;2022-12-08T17:08:36;20.70;;;9.03;;
289;SDS011;13193;48.874;9.086;2022-12-08T17:11:06;20.03;;;9.83;;
289;SDS011;13193;48.874;9.086;2022-12-08T17:13:33;26.23;;;11.27;;
289;SDS011;13193;48.874;9.086;2022-12-08T17:15:59;20.67;;;9.17;;
289;SDS011;13193;48.874;9.086;2022-12-08T17:18:25;25.07;;;12.40;;
289;SDS011;13193;48.874;9.086;2022-12-08T17:20:51;25.87;;;11.30;;
289;SDS011;13193;48.874;9.086;2022-12-08T17:23:16;24.90;;;12.03;;
289;SDS011;13193;48.874;9.086;2022-12-08T17:25:42;25.43;;;11.67;;